Авиационная погода в Гостомеле

Регион: 
Погода METAR: 
UKKM 221800Z AUTO 29002MPS 9999 // NSC M05/M08 Q1012
Время наблюдения
2022-01-22T18:00:00Z
Температура C
-5.0
Точка росы
-8.0
Направление ветра
290
Скорость ветра (узлы)
4
Метео видимость
6.21
Облачность
CLR
Нижняя граница облачности (футы)
Явления погоды
Условия полета
VFR
Аэропорт подробнее: 
CLR — нет облаков ниже 3000 м